sensor_id;sensor_type;location;lat;lon;timestamp;temperature;humidity
22379;DHT22;11357;49.990;7.370;2023-08-12T00:01:20;23.30;81.00
22379;DHT22;11357;49.990;7.370;2023-08-12T00:03:47;23.30;81.10
22379;DHT22;11357;49.990;7.370;2023-08-12T00:06:13;23.30;81.10
22379;DHT22;11357;49.990;7.370;2023-08-12T00:08:39;23.30;81.10
22379;DHT22;11357;49.990;7.370;2023-08-12T00:11:05;23.40;81.30
22379;DHT22;11357;49.990;7.370;2023-08-12T00:13:30;23.40;81.40
22379;DHT22;11357;49.990;7.370;2023-08-12T00:15:56;23.30;81.40
22379;DHT22;11357;49.990;7.370;2023-08-12T00:18:22;23.30;81.70
22379;DHT22;11357;49.990;7.370;2023-08-12T00:20:48;23.30;81.90
22379;DHT22;11357;49.990;7.370;2023-08-12T00:23:14;23.20;82.10
22379;DHT22;11357;49.990;7.370;2023-08-12T00:25:40;23.20;82.90
22379;DHT22;11357;49.990;7.370;2023-08-12T00:28:05;23.30;82.30
22379;DHT22;11357;49.990;7.370;2023-08-12T00:30:31;23.30;82.30
22379;DHT22;11357;49.990;7.370;2023-08-12T00:32:57;23.30;82.30
22379;DHT22;11357;49.990;7.370;2023-08-12T00:35:23;23.30;82.30
22379;DHT22;11357;49.990;7.370;2023-08-12T00:37:48;23.30;82.50
22379;DHT22;11357;49.990;7.370;2023-08-12T00:40:14;23.30;82.70
22379;DHT22;11357;49.990;7.370;2023-08-12T00:42:40;23.30;82.80
22379;DHT22;11357;49.990;7.370;2023-08-12T00:45:09;23.30;83.00
22379;DHT22;11357;49.990;7.370;2023-08-12T00:47:36;23.30;83.40
22379;DHT22;11357;49.990;7.370;2023-08-12T00:50:03;23.30;83.50
22379;DHT22;11357;49.990;7.370;2023-08-12T00:52:28;23.30;83.70
22379;DHT22;11357;49.990;7.370;2023-08-12T00:54:55;23.30;83.90
22379;DHT22;11357;49.990;7.370;2023-08-12T00:57:20;23.30;84.40
22379;DHT22;11357;49.990;7.370;2023-08-12T00:59:48;23.20;84.60
22379;DHT22;11357;49.990;7.370;2023-08-12T01:02:14;23.20;85.40
22379;DHT22;11357;49.990;7.370;2023-08-12T01:04:40;23.20;85.70
22379;DHT22;11357;49.990;7.370;2023-08-12T01:07:06;23.10;85.90
22379;DHT22;11357;49.990;7.370;2023-08-12T01:09:32;23.20;86.30
22379;DHT22;11357;49.990;7.370;2023-08-12T01:14:39;23.20;86.70
22379;DHT22;11357;49.990;7.370;2023-08-12T01:17:08;23.20;86.90
22379;DHT22;11357;49.990;7.370;2023-08-12T01:19:39;23.20;87.20
22379;DHT22;11357;49.990;7.370;2023-08-12T01:22:08;23.20;87.70
22379;DHT22;11357;49.990;7.370;2023-08-12T01:24:39;23.20;88.00
22379;DHT22;11357;49.990;7.370;2023-08-12T01:27:07;23.20;88.20
22379;DHT22;11357;49.990;7.370;2023-08-12T01:29:42;23.10;88.50
22379;DHT22;11357;49.990;7.370;2023-08-12T01:32:50;23.00;89.20
22379;DHT22;11357;49.990;7.370;2023-08-12T01:37:39;23.00;89.80
22379;DHT22;11357;49.990;7.370;2023-08-12T01:40:06;23.00;90.00
22379;DHT22;11357;49.990;7.370;2023-08-12T01:42:34;23.10;90.10
22379;DHT22;11357;49.990;7.370;2023-08-12T01:45:02;23.10;90.10
22379;DHT22;11357;49.990;7.370;2023-08-12T01:47:28;23.10;90.20
22379;DHT22;11357;49.990;7.370;2023-08-12T01:49:55;23.10;90.40
22379;DHT22;11357;49.990;7.370;2023-08-12T01:52:20;23.00;90.50
22379;DHT22;11357;49.990;7.370;2023-08-12T01:54:46;23.00;90.70
22379;DHT22;11357;49.990;7.370;2023-08-12T01:57:12;23.00;90.70
22379;DHT22;11357;49.990;7.370;2023-08-12T01:59:38;23.10;90.80
22379;DHT22;11357;49.990;7.370;2023-08-12T02:02:04;23.10;90.90
22379;DHT22;11357;49.990;7.370;2023-08-12T02:04:30;23.00;90.90
22379;DHT22;11357;49.990;7.370;2023-08-12T02:06:56;23.10;91.10
22379;DHT22;11357;49.990;7.370;2023-08-12T02:09:22;23.00;91.20
22379;DHT22;11357;49.990;7.370;2023-08-12T02:11:49;23.00;91.30
22379;DHT22;11357;49.990;7.370;2023-08-12T02:14:15;23.00;91.40
22379;DHT22;11357;49.990;7.370;2023-08-12T02:16:40;23.00;91.60
22379;DHT22;11357;49.990;7.370;2023-08-12T02:19:06;23.00;91.60
22379;DHT22;11357;49.990;7.370;2023-08-12T02:21:32;23.00;91.70
22379;DHT22;11357;49.990;7.370;2023-08-12T02:23:58;23.00;91.60
22379;DHT22;11357;49.990;7.370;2023-08-12T02:26:23;23.10;91.60
22379;DHT22;11357;49.990;7.370;2023-08-12T02:28:49;23.00;91.70
22379;DHT22;11357;49.990;7.370;2023-08-12T02:31:16;23.00;91.70
22379;DHT22;11357;49.990;7.370;2023-08-12T02:33:42;23.00;91.80
22379;DHT22;11357;49.990;7.370;2023-08-12T02:36:08;23.00;91.80
22379;DHT22;11357;49.990;7.370;2023-08-12T02:38:33;23.00;91.90
22379;DHT22;11357;49.990;7.370;2023-08-12T02:40:59;23.10;92.00
22379;DHT22;11357;49.990;7.370;2023-08-12T02:43:25;23.00;92.00
22379;DHT22;11357;49.990;7.370;2023-08-12T02:45:51;23.10;92.00
22379;DHT22;11357;49.990;7.370;2023-08-12T02:48:17;23.00;92.00
22379;DHT22;11357;49.990;7.370;2023-08-12T02:50:43;23.00;92.00
22379;DHT22;11357;49.990;7.370;2023-08-12T02:53:09;23.00;92.10
22379;DHT22;11357;49.990;7.370;2023-08-12T02:55:35;23.00;92.20
22379;DHT22;11357;49.990;7.370;2023-08-12T02:58:02;22.90;92.20
22379;DHT22;11357;49.990;7.370;2023-08-12T03:00:28;22.90;92.30
22379;DHT22;11357;49.990;7.370;2023-08-12T03:02:54;22.90;92.40
22379;DHT22;11357;49.990;7.370;2023-08-12T03:05:20;22.90;92.40
22379;DHT22;11357;49.990;7.370;2023-08-12T03:07:46;23.00;92.40
22379;DHT22;11357;49.990;7.370;2023-08-12T03:10:12;22.90;92.50
22379;DHT22;11357;49.990;7.370;2023-08-12T03:12:38;22.90;92.50
22379;DHT22;11357;49.990;7.370;2023-08-12T03:15:06;23.00;92.60
22379;DHT22;11357;49.990;7.370;2023-08-12T03:17:32;22.90;92.60
22379;DHT22;11357;49.990;7.370;2023-08-12T03:19:58;22.90;92.60
22379;DHT22;11357;49.990;7.370;2023-08-12T03:22:27;22.90;92.60
22379;DHT22;11357;49.990;7.370;2023-08-12T03:24:53;22.90;92.60
22379;DHT22;11357;49.990;7.370;2023-08-12T03:27:19;22.90;92.60
22379;DHT22;11357;49.990;7.370;2023-08-12T03:29:44;22.90;92.70
22379;DHT22;11357;49.990;7.370;2023-08-12T03:32:10;22.90;92.70
22379;DHT22;11357;49.990;7.370;2023-08-12T03:34:36;22.90;92.70
22379;DHT22;11357;49.990;7.370;2023-08-12T03:37:02;22.90;92.70
22379;DHT22;11357;49.990;7.370;2023-08-12T03:39:27;22.80;92.70
22379;DHT22;11357;49.990;7.370;2023-08-12T03:41:53;22.80;92.80
22379;DHT22;11357;49.990;7.370;2023-08-12T03:44:19;22.80;92.90
22379;DHT22;11357;49.990;7.370;2023-08-12T03:46:48;22.70;92.90
22379;DHT22;11357;49.990;7.370;2023-08-12T03:49:14;22.70;92.90
22379;DHT22;11357;49.990;7.370;2023-08-12T03:51:39;22.70;92.80
22379;DHT22;11357;49.990;7.370;2023-08-12T03:54:06;22.70;92.80
22379;DHT22;11357;49.990;7.370;2023-08-12T03:56:31;22.70;92.90
22379;DHT22;11357;49.990;7.370;2023-08-12T03:58:57;22.70;92.80
22379;DHT22;11357;49.990;7.370;2023-08-12T04:01:23;22.70;92.80
22379;DHT22;11357;49.990;7.370;2023-08-12T04:03:50;22.70;92.70
22379;DHT22;11357;49.990;7.370;2023-08-12T04:06:15;22.70;92.70
22379;DHT22;11357;49.990;7.370;2023-08-12T04:08:41;22.70;92.60
22379;DHT22;11357;49.990;7.370;2023-08-12T04:11:07;22.70;92.50
22379;DHT22;11357;49.990;7.370;2023-08-12T04:13:33;22.60;92.40
22379;DHT22;11357;49.990;7.370;2023-08-12T04:15:58;22.60;92.40
22379;DHT22;11357;49.990;7.370;2023-08-12T04:18:24;22.60;92.30
22379;DHT22;11357;49.990;7.370;2023-08-12T04:20:51;22.50;92.40
22379;DHT22;11357;49.990;7.370;2023-08-12T04:23:17;22.40;92.50
22379;DHT22;11357;49.990;7.370;2023-08-12T04:25:47;22.40;92.50
22379;DHT22;11357;49.990;7.370;2023-08-12T04:28:14;22.30;92.70
22379;DHT22;11357;49.990;7.370;2023-08-12T04:30:47;22.30;92.70
22379;DHT22;11357;49.990;7.370;2023-08-12T04:33:13;22.20;92.80
22379;DHT22;11357;49.990;7.370;2023-08-12T04:35:42;22.20;92.80
22379;DHT22;11357;49.990;7.370;2023-08-12T04:38:09;22.20;92.80
22379;DHT22;11357;49.990;7.370;2023-08-12T04:40:37;22.20;92.90
22379;DHT22;11357;49.990;7.370;2023-08-12T04:43:03;22.20;93.00
22379;DHT22;11357;49.990;7.370;2023-08-12T04:45:29;22.10;93.10
22379;DHT22;11357;49.990;7.370;2023-08-12T04:47:56;22.10;93.10
22379;DHT22;11357;49.990;7.370;2023-08-12T04:50:22;22.10;93.10
22379;DHT22;11357;49.990;7.370;2023-08-12T04:52:48;22.10;93.20
22379;DHT22;11357;49.990;7.370;2023-08-12T04:55:14;22.10;93.20
22379;DHT22;11357;49.990;7.370;2023-08-12T04:57:39;22.10;93.20
22379;DHT22;11357;49.990;7.370;2023-08-12T05:00:05;22.10;93.20
22379;DHT22;11357;49.990;7.370;2023-08-12T05:02:34;22.10;93.20
22379;DHT22;11357;49.990;7.370;2023-08-12T05:05:00;22.10;93.30
22379;DHT22;11357;49.990;7.370;2023-08-12T05:07:26;22.10;93.30
22379;DHT22;11357;49.990;7.370;2023-08-12T05:09:52;22.00;93.10
22379;DHT22;11357;49.990;7.370;2023-08-12T05:12:18;21.90;93.20
22379;DHT22;11357;49.990;7.370;2023-08-12T05:14:44;21.80;93.30
22379;DHT22;11357;49.990;7.370;2023-08-12T05:17:10;21.70;93.50
22379;DHT22;11357;49.990;7.370;2023-08-12T05:19:35;21.80;93.70
22379;DHT22;11357;49.990;7.370;2023-08-12T05:22:01;21.80;93.90
22379;DHT22;11357;49.990;7.370;2023-08-12T05:24:27;21.90;94.00
22379;DHT22;11357;49.990;7.370;2023-08-12T05:26:52;22.10;94.10
22379;DHT22;11357;49.990;7.370;2023-08-12T05:29:18;22.20;94.10
22379;DHT22;11357;49.990;7.370;2023-08-12T05:31:44;22.20;94.00
22379;DHT22;11357;49.990;7.370;2023-08-12T05:34:09;22.30;94.00
22379;DHT22;11357;49.990;7.370;2023-08-12T05:36:35;22.40;94.10
22379;DHT22;11357;49.990;7.370;2023-08-12T05:39:01;22.50;94.10
22379;DHT22;11357;49.990;7.370;2023-08-12T05:41:28;22.60;94.10
22379;DHT22;11357;49.990;7.370;2023-08-12T05:43:54;22.60;94.10
22379;DHT22;11357;49.990;7.370;2023-08-12T05:46:20;22.70;94.10
22379;DHT22;11357;49.990;7.370;2023-08-12T05:48:46;22.70;94.00
22379;DHT22;11357;49.990;7.370;2023-08-12T05:51:11;22.80;94.00
22379;DHT22;11357;49.990;7.370;2023-08-12T05:53:37;22.90;93.90
22379;DHT22;11357;49.990;7.370;2023-08-12T05:56:03;22.90;93.80
22379;DHT22;11357;49.990;7.370;2023-08-12T05:58:29;22.90;93.80
22379;DHT22;11357;49.990;7.370;2023-08-12T06:00:54;23.00;93.90
22379;DHT22;11357;49.990;7.370;2023-08-12T06:03:20;23.00;93.90
22379;DHT22;11357;49.990;7.370;2023-08-12T06:05:47;23.10;93.90
22379;DHT22;11357;49.990;7.370;2023-08-12T06:08:13;23.10;93.90
22379;DHT22;11357;49.990;7.370;2023-08-12T06:10:39;23.20;93.90
22379;DHT22;11357;49.990;7.370;2023-08-12T06:13:05;23.20;93.90
22379;DHT22;11357;49.990;7.370;2023-08-12T06:15:31;23.30;94.20
22379;DHT22;11357;49.990;7.370;2023-08-12T06:17:57;23.30;93.80
22379;DHT22;11357;49.990;7.370;2023-08-12T06:20:26;23.30;93.80
22379;DHT22;11357;49.990;7.370;2023-08-12T06:22:52;23.40;93.80
22379;DHT22;11357;49.990;7.370;2023-08-12T06:25:18;23.40;93.70
22379;DHT22;11357;49.990;7.370;2023-08-12T06:27:44;23.40;93.60
22379;DHT22;11357;49.990;7.370;2023-08-12T06:30:11;23.40;93.60
22379;DHT22;11357;49.990;7.370;2023-08-12T06:32:37;23.30;93.50
22379;DHT22;11357;49.990;7.370;2023-08-12T06:35:03;23.30;93.60
22379;DHT22;11357;49.990;7.370;2023-08-12T06:37:29;23.30;93.70
22379;DHT22;11357;49.990;7.370;2023-08-12T06:39:55;23.30;93.80
22379;DHT22;11357;49.990;7.370;2023-08-12T06:42:21;23.30;93.70
22379;DHT22;11357;49.990;7.370;2023-08-12T06:44:55;23.30;93.70
22379;DHT22;11357;49.990;7.370;2023-08-12T06:47:21;23.20;93.80
22379;DHT22;11357;49.990;7.370;2023-08-12T06:49:47;23.20;93.90
22379;DHT22;11357;49.990;7.370;2023-08-12T06:52:12;23.10;94.10
22379;DHT22;11357;49.990;7.370;2023-08-12T06:54:38;23.20;94.10
22379;DHT22;11357;49.990;7.370;2023-08-12T06:57:04;23.30;94.10
22379;DHT22;11357;49.990;7.370;2023-08-12T06:59:29;23.30;94.30
22379;DHT22;11357;49.990;7.370;2023-08-12T07:01:55;23.30;94.00
22379;DHT22;11357;49.990;7.370;2023-08-12T07:04:21;23.40;94.10
22379;DHT22;11357;49.990;7.370;2023-08-12T07:06:47;23.40;94.20
22379;DHT22;11357;49.990;7.370;2023-08-12T07:09:13;23.50;94.30
22379;DHT22;11357;49.990;7.370;2023-08-12T07:11:39;23.60;94.30
22379;DHT22;11357;49.990;7.370;2023-08-12T07:14:05;23.60;94.30
22379;DHT22;11357;49.990;7.370;2023-08-12T07:16:31;23.70;94.20
22379;DHT22;11357;49.990;7.370;2023-08-12T07:18:56;23.80;94.20
22379;DHT22;11357;49.990;7.370;2023-08-12T07:21:22;23.90;94.20
22379;DHT22;11357;49.990;7.370;2023-08-12T07:23:48;24.10;94.20
22379;DHT22;11357;49.990;7.370;2023-08-12T07:26:13;24.20;94.20
22379;DHT22;11357;49.990;7.370;2023-08-12T07:28:39;24.30;94.30
22379;DHT22;11357;49.990;7.370;2023-08-12T07:31:05;24.40;94.20
22379;DHT22;11357;49.990;7.370;2023-08-12T07:33:30;24.60;94.10
22379;DHT22;11357;49.990;7.370;2023-08-12T07:35:56;24.70;94.00
22379;DHT22;11357;49.990;7.370;2023-08-12T07:38:22;24.70;93.90
22379;DHT22;11357;49.990;7.370;2023-08-12T07:40:49;24.90;94.10
22379;DHT22;11357;49.990;7.370;2023-08-12T07:43:15;25.10;93.90
22379;DHT22;11357;49.990;7.370;2023-08-12T07:45:40;25.30;93.60
22379;DHT22;11357;49.990;7.370;2023-08-12T07:48:06;25.40;93.40
22379;DHT22;11357;49.990;7.370;2023-08-12T07:50:32;25.40;93.20
22379;DHT22;11357;49.990;7.370;2023-08-12T07:52:57;25.40;93.00
22379;DHT22;11357;49.990;7.370;2023-08-12T07:55:23;25.40;92.90
22379;DHT22;11357;49.990;7.370;2023-08-12T07:57:49;25.50;92.90
22379;DHT22;11357;49.990;7.370;2023-08-12T08:00:14;25.50;92.80
22379;DHT22;11357;49.990;7.370;2023-08-12T08:02:40;25.50;92.70
22379;DHT22;11357;49.990;7.370;2023-08-12T08:05:06;25.60;92.60
22379;DHT22;11357;49.990;7.370;2023-08-12T08:07:32;25.70;92.50
22379;DHT22;11357;49.990;7.370;2023-08-12T08:09:58;25.80;92.40
22379;DHT22;11357;49.990;7.370;2023-08-12T08:12:24;25.80;92.30
22379;DHT22;11357;49.990;7.370;2023-08-12T08:14:50;25.80;92.10
22379;DHT22;11357;49.990;7.370;2023-08-12T08:17:15;25.80;92.00
22379;DHT22;11357;49.990;7.370;2023-08-12T08:19:41;25.80;92.00
22379;DHT22;11357;49.990;7.370;2023-08-12T08:22:07;25.80;92.00
22379;DHT22;11357;49.990;7.370;2023-08-12T08:24:32;25.80;92.00
22379;DHT22;11357;49.990;7.370;2023-08-12T08:26:58;25.90;91.90
22379;DHT22;11357;49.990;7.370;2023-08-12T08:29:24;25.90;91.90
22379;DHT22;11357;49.990;7.370;2023-08-12T08:31:50;25.90;91.90
22379;DHT22;11357;49.990;7.370;2023-08-12T08:34:16;25.90;92.00
22379;DHT22;11357;49.990;7.370;2023-08-12T08:36:41;25.90;91.90
22379;DHT22;11357;49.990;7.370;2023-08-12T08:39:08;25.90;92.00
22379;DHT22;11357;49.990;7.370;2023-08-12T08:41:38;26.00;92.10
22379;DHT22;11357;49.990;7.370;2023-08-12T08:44:07;26.10;92.00
22379;DHT22;11357;49.990;7.370;2023-08-12T08:46:33;26.30;91.80
22379;DHT22;11357;49.990;7.370;2023-08-12T08:49:00;26.30;91.50
22379;DHT22;11357;49.990;7.370;2023-08-12T08:51:31;26.40;91.40
22379;DHT22;11357;49.990;7.370;2023-08-12T08:54:02;26.40;91.30
22379;DHT22;11357;49.990;7.370;2023-08-12T08:56:28;26.40;91.00
22379;DHT22;11357;49.990;7.370;2023-08-12T08:58:54;26.40;91.00
22379;DHT22;11357;49.990;7.370;2023-08-12T09:01:20;26.40;91.00
22379;DHT22;11357;49.990;7.370;2023-08-12T09:03:49;26.40;91.10
22379;DHT22;11357;49.990;7.370;2023-08-12T09:06:17;26.50;91.20
22379;DHT22;11357;49.990;7.370;2023-08-12T09:08:45;26.50;91.00
22379;DHT22;11357;49.990;7.370;2023-08-12T09:11:13;26.60;91.20
22379;DHT22;11357;49.990;7.370;2023-08-12T09:13:39;26.70;91.10
22379;DHT22;11357;49.990;7.370;2023-08-12T09:16:05;26.70;91.00
22379;DHT22;11357;49.990;7.370;2023-08-12T09:18:31;26.70;91.00
22379;DHT22;11357;49.990;7.370;2023-08-12T09:20:57;26.70;91.00
22379;DHT22;11357;49.990;7.370;2023-08-12T09:23:23;26.60;90.90
22379;DHT22;11357;49.990;7.370;2023-08-12T09:25:48;26.60;91.00
22379;DHT22;11357;49.990;7.370;2023-08-12T09:28:14;26.50;91.00
22379;DHT22;11357;49.990;7.370;2023-08-12T09:30:40;26.60;91.10
22379;DHT22;11357;49.990;7.370;2023-08-12T09:33:08;26.60;91.10
22379;DHT22;11357;49.990;7.370;2023-08-12T09:35:40;26.70;91.10
22379;DHT22;11357;49.990;7.370;2023-08-12T09:38:11;26.90;91.20
22379;DHT22;11357;49.990;7.370;2023-08-12T09:40:37;26.90;91.00
22379;DHT22;11357;49.990;7.370;2023-08-12T09:43:03;26.80;90.90
22379;DHT22;11357;49.990;7.370;2023-08-12T09:45:33;26.70;90.90
22379;DHT22;11357;49.990;7.370;2023-08-12T09:47:59;26.60;90.90
22379;DHT22;11357;49.990;7.370;2023-08-12T09:50:27;26.40;90.90
22379;DHT22;11357;49.990;7.370;2023-08-12T09:52:54;26.40;91.00
22379;DHT22;11357;49.990;7.370;2023-08-12T09:55:22;26.20;90.90
22379;DHT22;11357;49.990;7.370;2023-08-12T09:57:51;26.10;90.90
22379;DHT22;11357;49.990;7.370;2023-08-12T10:00:21;26.10;91.10
22379;DHT22;11357;49.990;7.370;2023-08-12T10:02:50;26.10;91.10
22379;DHT22;11357;49.990;7.370;2023-08-12T10:05:28;26.20;91.00
22379;DHT22;11357;49.990;7.370;2023-08-12T10:07:54;26.40;91.20
22379;DHT22;11357;49.990;7.370;2023-08-12T10:10:23;26.90;91.00
22379;DHT22;11357;49.990;7.370;2023-08-12T10:12:51;27.30;90.50
22379;DHT22;11357;49.990;7.370;2023-08-12T10:15:17;27.60;90.00
22379;DHT22;11357;49.990;7.370;2023-08-12T10:17:43;27.90;89.00
22379;DHT22;11357;49.990;7.370;2023-08-12T10:20:13;28.00;88.20
22379;DHT22;11357;49.990;7.370;2023-08-12T10:22:40;28.10;87.80
22379;DHT22;11357;49.990;7.370;2023-08-12T10:25:08;28.20;87.00
22379;DHT22;11357;49.990;7.370;2023-08-12T10:27:34;28.20;86.90
22379;DHT22;11357;49.990;7.370;2023-08-12T10:30:05;28.40;86.50
22379;DHT22;11357;49.990;7.370;2023-08-12T10:32:32;28.50;87.20
22379;DHT22;11357;49.990;7.370;2023-08-12T10:34:59;28.90;86.30
22379;DHT22;11357;49.990;7.370;2023-08-12T10:37:25;29.00;86.50
22379;DHT22;11357;49.990;7.370;2023-08-12T10:39:55;29.10;85.10
22379;DHT22;11357;49.990;7.370;2023-08-12T10:45:05;28.90;84.80
22379;DHT22;11357;49.990;7.370;2023-08-12T10:47:31;28.80;84.50
22379;DHT22;11357;49.990;7.370;2023-08-12T10:49:59;28.70;84.40
22379;DHT22;11357;49.990;7.370;2023-08-12T10:52:29;28.70;84.70
22379;DHT22;11357;49.990;7.370;2023-08-12T10:54:55;28.70;84.80
22379;DHT22;11357;49.990;7.370;2023-08-12T10:57:35;28.80;85.00
22379;DHT22;11357;49.990;7.370;2023-08-12T11:00:04;28.90;85.20
22379;DHT22;11357;49.990;7.370;2023-08-12T11:02:34;29.00;85.00
22379;DHT22;11357;49.990;7.370;2023-08-12T11:05:07;29.20;84.90
22379;DHT22;11357;49.990;7.370;2023-08-12T11:12:38;29.50;83.30
22379;DHT22;11357;49.990;7.370;2023-08-12T11:15:05;29.60;82.80
22379;DHT22;11357;49.990;7.370;2023-08-12T11:17:36;29.80;82.30
22379;DHT22;11357;49.990;7.370;2023-08-12T11:20:04;30.20;81.90
22379;DHT22;11357;49.990;7.370;2023-08-12T11:22:31;30.40;80.80
22379;DHT22;11357;49.990;7.370;2023-08-12T11:24:57;30.40;80.10
22379;DHT22;11357;49.990;7.370;2023-08-12T11:27:23;30.40;80.40
22379;DHT22;11357;49.990;7.370;2023-08-12T11:29:50;30.60;80.00
22379;DHT22;11357;49.990;7.370;2023-08-12T11:32:20;30.70;79.40
22379;DHT22;11357;49.990;7.370;2023-08-12T11:34:46;30.80;79.30
22379;DHT22;11357;49.990;7.370;2023-08-12T11:37:12;30.60;78.50
22379;DHT22;11357;49.990;7.370;2023-08-12T11:39:38;30.40;78.50
22379;DHT22;11357;49.990;7.370;2023-08-12T11:42:04;30.20;78.50
22379;DHT22;11357;49.990;7.370;2023-08-12T11:44:30;30.00;78.80
22379;DHT22;11357;49.990;7.370;2023-08-12T11:46:56;29.80;78.60
22379;DHT22;11357;49.990;7.370;2023-08-12T11:49:21;30.00;79.10
22379;DHT22;11357;49.990;7.370;2023-08-12T11:51:47;30.40;78.10
22379;DHT22;11357;49.990;7.370;2023-08-12T11:54:16;30.60;77.10
22379;DHT22;11357;49.990;7.370;2023-08-12T11:56:42;30.60;76.80
22379;DHT22;11357;49.990;7.370;2023-08-12T11:59:08;30.40;76.40
22379;DHT22;11357;49.990;7.370;2023-08-12T12:01:34;30.10;76.70
22379;DHT22;11357;49.990;7.370;2023-08-12T12:04:00;29.90;77.30
22379;DHT22;11357;49.990;7.370;2023-08-12T12:06:38;29.70;77.80
22379;DHT22;11357;49.990;7.370;2023-08-12T12:09:06;29.50;78.50
22379;DHT22;11357;49.990;7.370;2023-08-12T12:11:35;29.30;78.70
22379;DHT22;11357;49.990;7.370;2023-08-12T12:14:06;29.20;78.90
22379;DHT22;11357;49.990;7.370;2023-08-12T12:16:45;29.10;78.70
22379;DHT22;11357;49.990;7.370;2023-08-12T12:19:18;29.00;77.90
22379;DHT22;11357;49.990;7.370;2023-08-12T12:21:46;28.90;77.90
22379;DHT22;11357;49.990;7.370;2023-08-12T12:24:12;28.90;77.90
22379;DHT22;11357;49.990;7.370;2023-08-12T12:26:38;28.80;78.30
22379;DHT22;11357;49.990;7.370;2023-08-12T12:29:05;28.90;78.50
22379;DHT22;11357;49.990;7.370;2023-08-12T12:31:35;28.70;77.80
22379;DHT22;11357;49.990;7.370;2023-08-12T12:34:04;28.60;77.80
22379;DHT22;11357;49.990;7.370;2023-08-12T12:36:31;28.80;78.00
22379;DHT22;11357;49.990;7.370;2023-08-12T12:38:57;29.20;77.90
22379;DHT22;11357;49.990;7.370;2023-08-12T12:41:23;30.10;77.00
22379;DHT22;11357;49.990;7.370;2023-08-12T12:43:48;30.80;74.20
22379;DHT22;11357;49.990;7.370;2023-08-12T12:46:15;31.30;73.30
22379;DHT22;11357;49.990;7.370;2023-08-12T12:48:42;31.90;72.40
22379;DHT22;11357;49.990;7.370;2023-08-12T12:51:08;32.40;71.40
22379;DHT22;11357;49.990;7.370;2023-08-12T12:53:34;32.60;70.20
22379;DHT22;11357;49.990;7.370;2023-08-12T12:55:59;32.60;68.70
22379;DHT22;11357;49.990;7.370;2023-08-12T12:58:31;32.50;68.50
22379;DHT22;11357;49.990;7.370;2023-08-12T13:00:57;32.40;68.10
22379;DHT22;11357;49.990;7.370;2023-08-12T13:03:22;32.40;67.20
22379;DHT22;11357;49.990;7.370;2023-08-12T13:05:49;32.10;67.10
22379;DHT22;11357;49.990;7.370;2023-08-12T13:08:15;32.00;67.70
22379;DHT22;11357;49.990;7.370;2023-08-12T13:10:41;31.90;67.80
22379;DHT22;11357;49.990;7.370;2023-08-12T13:13:06;31.60;68.00
22379;DHT22;11357;49.990;7.370;2023-08-12T13:15:32;31.40;67.90
22379;DHT22;11357;49.990;7.370;2023-08-12T13:17:58;31.10;68.30
22379;DHT22;11357;49.990;7.370;2023-08-12T13:20:23;30.80;68.10
22379;DHT22;11357;49.990;7.370;2023-08-12T13:22:49;30.50;68.50
22379;DHT22;11357;49.990;7.370;2023-08-12T13:25:15;30.40;68.90
22379;DHT22;11357;49.990;7.370;2023-08-12T13:27:42;30.20;69.50
22379;DHT22;11357;49.990;7.370;2023-08-12T13:30:08;30.10;70.00
22379;DHT22;11357;49.990;7.370;2023-08-12T13:32:36;30.00;70.30
22379;DHT22;11357;49.990;7.370;2023-08-12T13:35:03;29.90;70.20
22379;DHT22;11357;49.990;7.370;2023-08-12T13:37:29;29.80;70.80
22379;DHT22;11357;49.990;7.370;2023-08-12T13:39:54;29.80;71.40
22379;DHT22;11357;49.990;7.370;2023-08-12T13:42:20;29.90;71.60
22379;DHT22;11357;49.990;7.370;2023-08-12T13:44:46;29.90;71.50
22379;DHT22;11357;49.990;7.370;2023-08-12T13:47:12;29.90;71.20
22379;DHT22;11357;49.990;7.370;2023-08-12T13:49:37;29.80;71.20
22379;DHT22;11357;49.990;7.370;2023-08-12T13:52:03;29.60;71.60
22379;DHT22;11357;49.990;7.370;2023-08-12T13:54:29;29.50;71.70
22379;DHT22;11357;49.990;7.370;2023-08-12T13:56:54;29.50;71.90
22379;DHT22;11357;49.990;7.370;2023-08-12T13:59:20;29.50;72.30
22379;DHT22;11357;49.990;7.370;2023-08-12T14:01:46;29.50;72.10
22379;DHT22;11357;49.990;7.370;2023-08-12T14:04:11;29.30;72.00
22379;DHT22;11357;49.990;7.370;2023-08-12T14:06:37;29.20;72.10
22379;DHT22;11357;49.990;7.370;2023-08-12T14:09:03;29.20;72.60
22379;DHT22;11357;49.990;7.370;2023-08-12T14:11:28;29.10;73.30
22379;DHT22;11357;49.990;7.370;2023-08-12T14:13:57;29.00;73.40
22379;DHT22;11357;49.990;7.370;2023-08-12T14:16:23;28.90;73.50
22379;DHT22;11357;49.990;7.370;2023-08-12T14:18:48;28.90;73.70
22379;DHT22;11357;49.990;7.370;2023-08-12T14:21:14;28.70;73.60
22379;DHT22;11357;49.990;7.370;2023-08-12T14:23:40;28.60;73.80
22379;DHT22;11357;49.990;7.370;2023-08-12T14:26:05;28.50;74.30
22379;DHT22;11357;49.990;7.370;2023-08-12T14:28:31;28.50;74.50
22379;DHT22;11357;49.990;7.370;2023-08-12T14:30:57;28.50;74.70
22379;DHT22;11357;49.990;7.370;2023-08-12T14:33:22;28.40;75.00
22379;DHT22;11357;49.990;7.370;2023-08-12T14:35:50;28.40;75.50
22379;DHT22;11357;49.990;7.370;2023-08-12T14:38:16;28.30;75.70
22379;DHT22;11357;49.990;7.370;2023-08-12T14:40:46;28.30;75.60
22379;DHT22;11357;49.990;7.370;2023-08-12T14:43:12;28.10;75.70
22379;DHT22;11357;49.990;7.370;2023-08-12T14:45:37;28.10;76.00
22379;DHT22;11357;49.990;7.370;2023-08-12T14:48:03;28.00;76.30
22379;DHT22;11357;49.990;7.370;2023-08-12T14:50:29;28.00;76.50
22379;DHT22;11357;49.990;7.370;2023-08-12T14:52:55;28.00;76.60
22379;DHT22;11357;49.990;7.370;2023-08-12T14:55:20;28.00;76.80
22379;DHT22;11357;49.990;7.370;2023-08-12T14:57:46;27.90;77.00
22379;DHT22;11357;49.990;7.370;2023-08-12T15:00:12;27.90;77.10
22379;DHT22;11357;49.990;7.370;2023-08-12T15:02:38;27.90;77.40
22379;DHT22;11357;49.990;7.370;2023-08-12T15:05:04;27.70;77.50
22379;DHT22;11357;49.990;7.370;2023-08-12T15:07:31;27.60;78.40
22379;DHT22;11357;49.990;7.370;2023-08-12T15:09:56;27.50;78.10
22379;DHT22;11357;49.990;7.370;2023-08-12T15:12:25;27.30;78.60
22379;DHT22;11357;49.990;7.370;2023-08-12T15:14:52;27.20;79.10
22379;DHT22;11357;49.990;7.370;2023-08-12T15:17:18;27.10;79.40
22379;DHT22;11357;49.990;7.370;2023-08-12T15:19:43;27.00;80.00
22379;DHT22;11357;49.990;7.370;2023-08-12T15:22:09;26.90;80.10
22379;DHT22;11357;49.990;7.370;2023-08-12T15:24:35;26.80;80.50
22379;DHT22;11357;49.990;7.370;2023-08-12T15:27:00;26.70;81.00
22379;DHT22;11357;49.990;7.370;2023-08-12T15:29:26;26.70;81.30
22379;DHT22;11357;49.990;7.370;2023-08-12T15:31:52;26.60;81.50
22379;DHT22;11357;49.990;7.370;2023-08-12T15:34:17;26.60;81.80
22379;DHT22;11357;49.990;7.370;2023-08-12T15:36:43;26.60;82.00
22379;DHT22;11357;49.990;7.370;2023-08-12T15:39:09;26.60;82.00